sensor_id;sensor_type;location;lat;lon;timestamp;P1;durP1;ratioP1;P2;durP2;ratioP2
22715;SDS011;11525;51.152;4.456;2023-04-03T00:01:06;13.95;;;9.88;;
22715;SDS011;11525;51.152;4.456;2023-04-03T00:03:32;13.00;;;9.23;;
22715;SDS011;11525;51.152;4.456;2023-04-03T00:05:58;12.63;;;9.13;;
22715;SDS011;11525;51.152;4.456;2023-04-03T00:08:25;13.52;;;9.10;;
22715;SDS011;11525;51.152;4.456;2023-04-03T00:10:50;15.38;;;10.35;;
22715;SDS011;11525;51.152;4.456;2023-04-03T00:13:16;14.52;;;9.27;;
22715;SDS011;11525;51.152;4.456;2023-04-03T00:15:42;14.00;;;10.07;;
22715;SDS011;11525;51.152;4.456;2023-04-03T00:18:08;10.98;;;9.02;;
22715;SDS011;11525;51.152;4.456;2023-04-03T00:20:35;11.63;;;8.68;;
22715;SDS011;11525;51.152;4.456;2023-04-03T00:23:01;12.80;;;8.80;;
22715;SDS011;11525;51.152;4.456;2023-04-03T00:25:27;11.43;;;8.68;;
22715;SDS011;11525;51.152;4.456;2023-04-03T00:27:52;14.18;;;8.57;;
22715;SDS011;11525;51.152;4.456;2023-04-03T00:30:19;12.30;;;9.52;;
22715;SDS011;11525;51.152;4.456;2023-04-03T00:32:49;12.63;;;8.38;;
22715;SDS011;11525;51.152;4.456;2023-04-03T00:35:16;10.00;;;8.85;;
22715;SDS011;11525;51.152;4.456;2023-04-03T00:37:42;12.43;;;9.25;;
22715;SDS011;11525;51.152;4.456;2023-04-03T00:40:09;13.32;;;8.40;;
22715;SDS011;11525;51.152;4.456;2023-04-03T00:42:36;13.15;;;9.20;;
22715;SDS011;11525;51.152;4.456;2023-04-03T00:47:31;14.23;;;9.27;;
22715;SDS011;11525;51.152;4.456;2023-04-03T00:49:57;14.48;;;8.95;;
22715;SDS011;11525;51.152;4.456;2023-04-03T00:52:25;12.70;;;9.23;;
22715;SDS011;11525;51.152;4.456;2023-04-03T00:54:57;15.70;;;9.85;;
22715;SDS011;11525;51.152;4.456;2023-04-03T00:57:26;10.00;;;8.68;;
22715;SDS011;11525;51.152;4.456;2023-04-03T00:59:55;17.42;;;9.43;;
22715;SDS011;11525;51.152;4.456;2023-04-03T01:02:26;16.90;;;9.38;;
22715;SDS011;11525;51.152;4.456;2023-04-03T01:04:52;12.45;;;9.55;;
22715;SDS011;11525;51.152;4.456;2023-04-03T01:07:19;13.98;;;9.48;;
22715;SDS011;11525;51.152;4.456;2023-04-03T01:09:48;12.20;;;9.38;;
22715;SDS011;11525;51.152;4.456;2023-04-03T01:12:21;13.05;;;9.73;;
22715;SDS011;11525;51.152;4.456;2023-04-03T01:14:51;17.05;;;10.55;;
22715;SDS011;11525;51.152;4.456;2023-04-03T01:17:29;15.02;;;11.25;;
22715;SDS011;11525;51.152;4.456;2023-04-03T01:25:45;13.82;;;10.73;;
22715;SDS011;11525;51.152;4.456;2023-04-03T01:28:15;17.35;;;10.70;;
22715;SDS011;11525;51.152;4.456;2023-04-03T01:30:58;16.95;;;10.40;;
22715;SDS011;11525;51.152;4.456;2023-04-03T01:33:32;13.77;;;9.95;;
22715;SDS011;11525;51.152;4.456;2023-04-03T01:35:58;15.23;;;10.27;;
22715;SDS011;11525;51.152;4.456;2023-04-03T01:38:24;14.70;;;9.80;;
22715;SDS011;11525;51.152;4.456;2023-04-03T01:40:50;11.05;;;9.80;;
22715;SDS011;11525;51.152;4.456;2023-04-03T01:43:16;14.02;;;10.27;;
22715;SDS011;11525;51.152;4.456;2023-04-03T01:45:42;12.32;;;10.35;;
22715;SDS011;11525;51.152;4.456;2023-04-03T01:48:08;16.42;;;11.50;;
22715;SDS011;11525;51.152;4.456;2023-04-03T01:50:33;14.63;;;9.80;;
22715;SDS011;11525;51.152;4.456;2023-04-03T01:52:59;14.50;;;10.80;;
22715;SDS011;11525;51.152;4.456;2023-04-03T01:55:25;18.13;;;10.77;;
22715;SDS011;11525;51.152;4.456;2023-04-03T01:57:51;14.70;;;10.32;;
22715;SDS011;11525;51.152;4.456;2023-04-03T02:00:16;15.65;;;10.40;;
22715;SDS011;11525;51.152;4.456;2023-04-03T02:02:42;14.02;;;10.63;;
22715;SDS011;11525;51.152;4.456;2023-04-03T02:05:08;13.40;;;11.18;;
22715;SDS011;11525;51.152;4.456;2023-04-03T02:07:34;13.63;;;10.68;;
22715;SDS011;11525;51.152;4.456;2023-04-03T02:10:00;13.80;;;11.35;;
22715;SDS011;11525;51.152;4.456;2023-04-03T02:12:26;13.07;;;10.43;;
22715;SDS011;11525;51.152;4.456;2023-04-03T02:14:52;13.40;;;10.75;;
22715;SDS011;11525;51.152;4.456;2023-04-03T02:17:18;14.60;;;11.00;;
22715;SDS011;11525;51.152;4.456;2023-04-03T02:19:44;16.50;;;10.48;;
22715;SDS011;11525;51.152;4.456;2023-04-03T02:22:09;13.85;;;9.98;;
22715;SDS011;11525;51.152;4.456;2023-04-03T02:24:35;14.63;;;9.98;;
22715;SDS011;11525;51.152;4.456;2023-04-03T02:27:01;13.07;;;9.95;;
22715;SDS011;11525;51.152;4.456;2023-04-03T02:29:27;15.38;;;10.70;;
22715;SDS011;11525;51.152;4.456;2023-04-03T02:31:53;12.70;;;10.77;;
22715;SDS011;11525;51.152;4.456;2023-04-03T02:34:18;12.23;;;10.52;;
22715;SDS011;11525;51.152;4.456;2023-04-03T02:36:44;15.43;;;10.30;;
22715;SDS011;11525;51.152;4.456;2023-04-03T02:39:10;13.40;;;10.23;;
22715;SDS011;11525;51.152;4.456;2023-04-03T02:41:36;13.40;;;10.55;;
22715;SDS011;11525;51.152;4.456;2023-04-03T02:44:03;16.08;;;11.38;;
22715;SDS011;11525;51.152;4.456;2023-04-03T02:46:29;15.13;;;10.60;;
22715;SDS011;11525;51.152;4.456;2023-04-03T02:48:55;14.82;;;10.82;;
22715;SDS011;11525;51.152;4.456;2023-04-03T02:51:21;15.63;;;9.32;;
22715;SDS011;11525;51.152;4.456;2023-04-03T02:53:48;14.48;;;11.07;;
22715;SDS011;11525;51.152;4.456;2023-04-03T02:56:14;16.27;;;11.75;;
22715;SDS011;11525;51.152;4.456;2023-04-03T02:58:40;15.57;;;10.48;;
22715;SDS011;11525;51.152;4.456;2023-04-03T03:01:06;12.88;;;10.20;;
22715;SDS011;11525;51.152;4.456;2023-04-03T03:03:32;12.43;;;10.13;;
22715;SDS011;11525;51.152;4.456;2023-04-03T03:06:05;15.30;;;10.02;;
22715;SDS011;11525;51.152;4.456;2023-04-03T03:08:40;17.55;;;10.27;;
22715;SDS011;11525;51.152;4.456;2023-04-03T03:11:06;12.73;;;10.23;;
22715;SDS011;11525;51.152;4.456;2023-04-03T03:13:32;13.18;;;10.23;;
22715;SDS011;11525;51.152;4.456;2023-04-03T03:15:58;13.40;;;11.18;;
22715;SDS011;11525;51.152;4.456;2023-04-03T03:18:25;20.48;;;11.25;;
22715;SDS011;11525;51.152;4.456;2023-04-03T03:20:54;12.88;;;10.60;;
22715;SDS011;11525;51.152;4.456;2023-04-03T03:23:22;15.25;;;10.48;;
22715;SDS011;11525;51.152;4.456;2023-04-03T03:25:53;13.35;;;11.57;;
22715;SDS011;11525;51.152;4.456;2023-04-03T03:28:21;12.38;;;10.10;;
22715;SDS011;11525;51.152;4.456;2023-04-03T03:30:46;20.77;;;10.77;;
22715;SDS011;11525;51.152;4.456;2023-04-03T03:33:12;16.13;;;11.13;;
22715;SDS011;11525;51.152;4.456;2023-04-03T03:35:38;18.42;;;11.38;;
22715;SDS011;11525;51.152;4.456;2023-04-03T03:38:03;16.17;;;11.10;;
22715;SDS011;11525;51.152;4.456;2023-04-03T03:40:29;14.27;;;10.50;;
22715;SDS011;11525;51.152;4.456;2023-04-03T03:42:55;17.77;;;10.68;;
22715;SDS011;11525;51.152;4.456;2023-04-03T03:45:21;13.75;;;10.95;;
22715;SDS011;11525;51.152;4.456;2023-04-03T03:47:46;12.82;;;11.05;;
22715;SDS011;11525;51.152;4.456;2023-04-03T03:50:12;15.10;;;10.90;;
22715;SDS011;11525;51.152;4.456;2023-04-03T03:52:38;15.35;;;11.98;;
22715;SDS011;11525;51.152;4.456;2023-04-03T03:55:04;15.05;;;11.98;;
22715;SDS011;11525;51.152;4.456;2023-04-03T03:57:30;14.73;;;11.82;;
22715;SDS011;11525;51.152;4.456;2023-04-03T03:59:56;14.65;;;10.65;;
22715;SDS011;11525;51.152;4.456;2023-04-03T04:02:22;15.77;;;12.25;;
22715;SDS011;11525;51.152;4.456;2023-04-03T04:04:48;17.77;;;12.25;;
22715;SDS011;11525;51.152;4.456;2023-04-03T04:07:14;16.90;;;11.63;;
22715;SDS011;11525;51.152;4.456;2023-04-03T04:09:40;17.95;;;11.40;;
22715;SDS011;11525;51.152;4.456;2023-04-03T04:12:06;13.27;;;11.43;;
22715;SDS011;11525;51.152;4.456;2023-04-03T04:14:31;17.13;;;12.07;;
22715;SDS011;11525;51.152;4.456;2023-04-03T04:16:57;15.60;;;11.85;;
22715;SDS011;11525;51.152;4.456;2023-04-03T04:19:23;16.23;;;11.95;;
22715;SDS011;11525;51.152;4.456;2023-04-03T04:21:49;20.52;;;11.88;;
22715;SDS011;11525;51.152;4.456;2023-04-03T04:24:15;17.63;;;12.93;;
22715;SDS011;11525;51.152;4.456;2023-04-03T04:26:41;17.33;;;12.55;;
22715;SDS011;11525;51.152;4.456;2023-04-03T04:29:08;17.70;;;12.63;;
22715;SDS011;11525;51.152;4.456;2023-04-03T04:31:35;19.45;;;12.98;;
22715;SDS011;11525;51.152;4.456;2023-04-03T04:34:01;19.13;;;11.98;;
22715;SDS011;11525;51.152;4.456;2023-04-03T04:36:26;21.42;;;13.35;;
22715;SDS011;11525;51.152;4.456;2023-04-03T04:38:52;20.50;;;13.65;;
22715;SDS011;11525;51.152;4.456;2023-04-03T04:41:21;17.45;;;13.13;;
22715;SDS011;11525;51.152;4.456;2023-04-03T04:43:48;17.65;;;13.77;;
22715;SDS011;11525;51.152;4.456;2023-04-03T04:46:14;18.23;;;13.75;;
22715;SDS011;11525;51.152;4.456;2023-04-03T04:48:40;16.55;;;13.05;;
22715;SDS011;11525;51.152;4.456;2023-04-03T04:51:06;18.10;;;13.80;;
22715;SDS011;11525;51.152;4.456;2023-04-03T04:53:32;15.05;;;13.13;;
22715;SDS011;11525;51.152;4.456;2023-04-03T04:55:58;18.38;;;13.63;;
22715;SDS011;11525;51.152;4.456;2023-04-03T04:58:24;17.10;;;13.38;;
22715;SDS011;11525;51.152;4.456;2023-04-03T05:00:57;17.90;;;13.30;;
22715;SDS011;11525;51.152;4.456;2023-04-03T05:03:27;20.23;;;13.55;;
22715;SDS011;11525;51.152;4.456;2023-04-03T05:05:53;19.05;;;13.68;;
22715;SDS011;11525;51.152;4.456;2023-04-03T05:08:18;22.02;;;14.48;;
22715;SDS011;11525;51.152;4.456;2023-04-03T05:10:45;19.30;;;14.38;;
22715;SDS011;11525;51.152;4.456;2023-04-03T05:13:11;22.98;;;13.82;;
22715;SDS011;11525;51.152;4.456;2023-04-03T05:15:37;17.73;;;14.18;;
22715;SDS011;11525;51.152;4.456;2023-04-03T05:18:03;18.85;;;14.75;;
22715;SDS011;11525;51.152;4.456;2023-04-03T05:20:30;21.20;;;15.15;;
22715;SDS011;11525;51.152;4.456;2023-04-03T05:22:56;23.13;;;15.70;;
22715;SDS011;11525;51.152;4.456;2023-04-03T05:25:22;19.58;;;14.57;;
22715;SDS011;11525;51.152;4.456;2023-04-03T05:27:48;27.05;;;16.13;;
22715;SDS011;11525;51.152;4.456;2023-04-03T05:30:14;19.00;;;15.13;;
22715;SDS011;11525;51.152;4.456;2023-04-03T05:32:41;18.35;;;15.25;;
22715;SDS011;11525;51.152;4.456;2023-04-03T05:35:07;19.45;;;15.70;;
22715;SDS011;11525;51.152;4.456;2023-04-03T05:37:33;23.15;;;15.27;;
22715;SDS011;11525;51.152;4.456;2023-04-03T05:39:59;22.58;;;14.85;;
22715;SDS011;11525;51.152;4.456;2023-04-03T05:42:25;20.52;;;15.35;;
22715;SDS011;11525;51.152;4.456;2023-04-03T05:44:51;23.25;;;14.93;;
22715;SDS011;11525;51.152;4.456;2023-04-03T05:47:17;17.17;;;14.20;;
22715;SDS011;11525;51.152;4.456;2023-04-03T05:49:44;28.67;;;16.83;;
22715;SDS011;11525;51.152;4.456;2023-04-03T05:52:28;20.42;;;15.63;;
22715;SDS011;11525;51.152;4.456;2023-04-03T05:55:02;19.73;;;14.57;;
22715;SDS011;11525;51.152;4.456;2023-04-03T05:57:28;17.95;;;14.52;;
22715;SDS011;11525;51.152;4.456;2023-04-03T05:59:54;16.60;;;14.48;;
22715;SDS011;11525;51.152;4.456;2023-04-03T06:02:20;16.38;;;13.57;;
22715;SDS011;11525;51.152;4.456;2023-04-03T06:04:48;23.70;;;16.35;;
22715;SDS011;11525;51.152;4.456;2023-04-03T06:07:14;24.00;;;14.55;;
22715;SDS011;11525;51.152;4.456;2023-04-03T06:09:42;17.65;;;14.95;;
22715;SDS011;11525;51.152;4.456;2023-04-03T06:12:08;23.30;;;17.25;;
22715;SDS011;11525;51.152;4.456;2023-04-03T06:14:35;22.15;;;18.70;;
22715;SDS011;11525;51.152;4.456;2023-04-03T06:17:01;19.10;;;15.35;;
22715;SDS011;11525;51.152;4.456;2023-04-03T06:19:27;18.42;;;15.85;;
22715;SDS011;11525;51.152;4.456;2023-04-03T06:21:53;20.13;;;14.18;;
22715;SDS011;11525;51.152;4.456;2023-04-03T06:24:19;20.13;;;15.52;;
22715;SDS011;11525;51.152;4.456;2023-04-03T06:26:47;20.95;;;16.95;;
22715;SDS011;11525;51.152;4.456;2023-04-03T06:29:14;17.45;;;12.95;;
22715;SDS011;11525;51.152;4.456;2023-04-03T06:31:40;18.75;;;13.02;;
22715;SDS011;11525;51.152;4.456;2023-04-03T06:34:06;14.88;;;11.88;;
22715;SDS011;11525;51.152;4.456;2023-04-03T06:36:32;16.85;;;10.43;;
22715;SDS011;11525;51.152;4.456;2023-04-03T06:38:59;15.80;;;10.70;;
22715;SDS011;11525;51.152;4.456;2023-04-03T06:41:25;13.60;;;10.13;;
22715;SDS011;11525;51.152;4.456;2023-04-03T06:43:51;12.73;;;10.52;;
22715;SDS011;11525;51.152;4.456;2023-04-03T06:46:18;16.33;;;9.73;;
22715;SDS011;11525;51.152;4.456;2023-04-03T06:48:46;12.10;;;8.70;;
22715;SDS011;11525;51.152;4.456;2023-04-03T06:51:22;13.05;;;7.05;;
22715;SDS011;11525;51.152;4.456;2023-04-03T06:53:54;7.82;;;6.05;;
22715;SDS011;11525;51.152;4.456;2023-04-03T06:56:21;8.52;;;5.95;;
22715;SDS011;11525;51.152;4.456;2023-04-03T06:58:48;9.98;;;5.30;;
22715;SDS011;11525;51.152;4.456;2023-04-03T07:01:14;8.70;;;5.32;;
22715;SDS011;11525;51.152;4.456;2023-04-03T07:03:41;8.35;;;5.32;;
22715;SDS011;11525;51.152;4.456;2023-04-03T07:06:09;10.00;;;5.00;;
22715;SDS011;11525;51.152;4.456;2023-04-03T07:08:37;9.23;;;4.88;;
22715;SDS011;11525;51.152;4.456;2023-04-03T07:11:03;7.00;;;4.97;;
22715;SDS011;11525;51.152;4.456;2023-04-03T07:13:30;9.70;;;5.00;;
22715;SDS011;11525;51.152;4.456;2023-04-03T07:15:56;8.35;;;4.57;;
22715;SDS011;11525;51.152;4.456;2023-04-03T07:18:22;11.32;;;5.35;;
22715;SDS011;11525;51.152;4.456;2023-04-03T07:20:48;5.57;;;4.43;;
22715;SDS011;11525;51.152;4.456;2023-04-03T07:23:14;9.20;;;4.97;;
22715;SDS011;11525;51.152;4.456;2023-04-03T07:25:43;14.07;;;4.85;;
22715;SDS011;11525;51.152;4.456;2023-04-03T07:28:11;7.45;;;4.60;;
22715;SDS011;11525;51.152;4.456;2023-04-03T07:30:47;6.80;;;4.65;;
22715;SDS011;11525;51.152;4.456;2023-04-03T07:33:25;11.32;;;4.68;;
22715;SDS011;11525;51.152;4.456;2023-04-03T07:35:51;8.18;;;4.80;;
22715;SDS011;11525;51.152;4.456;2023-04-03T07:38:17;6.95;;;4.80;;
22715;SDS011;11525;51.152;4.456;2023-04-03T07:40:47;10.85;;;5.30;;
22715;SDS011;11525;51.152;4.456;2023-04-03T07:43:17;9.00;;;4.65;;
22715;SDS011;11525;51.152;4.456;2023-04-03T07:45:45;9.95;;;4.55;;
22715;SDS011;11525;51.152;4.456;2023-04-03T07:48:14;6.50;;;3.92;;
22715;SDS011;11525;51.152;4.456;2023-04-03T07:50:42;6.00;;;4.30;;
22715;SDS011;11525;51.152;4.456;2023-04-03T07:53:08;7.13;;;4.53;;
22715;SDS011;11525;51.152;4.456;2023-04-03T07:55:35;5.97;;;4.50;;
22715;SDS011;11525;51.152;4.456;2023-04-03T07:58:07;7.55;;;4.07;;
22715;SDS011;11525;51.152;4.456;2023-04-03T08:00:36;7.40;;;4.97;;
22715;SDS011;11525;51.152;4.456;2023-04-03T08:03:03;6.97;;;4.63;;
22715;SDS011;11525;51.152;4.456;2023-04-03T08:05:29;8.27;;;4.43;;
22715;SDS011;11525;51.152;4.456;2023-04-03T08:07:55;8.90;;;4.28;;
22715;SDS011;11525;51.152;4.456;2023-04-03T08:10:21;8.32;;;4.07;;
22715;SDS011;11525;51.152;4.456;2023-04-03T08:12:47;8.38;;;4.03;;
22715;SDS011;11525;51.152;4.456;2023-04-03T08:15:13;6.85;;;3.50;;
22715;SDS011;11525;51.152;4.456;2023-04-03T08:17:39;6.90;;;3.72;;
22715;SDS011;11525;51.152;4.456;2023-04-03T08:20:05;5.40;;;3.58;;
22715;SDS011;11525;51.152;4.456;2023-04-03T08:22:33;7.97;;;3.80;;
22715;SDS011;11525;51.152;4.456;2023-04-03T08:24:59;10.50;;;3.85;;
22715;SDS011;11525;51.152;4.456;2023-04-03T08:27:26;7.07;;;3.75;;
22715;SDS011;11525;51.152;4.456;2023-04-03T08:29:53;7.32;;;3.95;;
22715;SDS011;11525;51.152;4.456;2023-04-03T08:32:23;6.80;;;3.55;;
22715;SDS011;11525;51.152;4.456;2023-04-03T08:34:49;5.43;;;3.50;;
22715;SDS011;11525;51.152;4.456;2023-04-03T08:37:15;6.05;;;3.30;;
22715;SDS011;11525;51.152;4.456;2023-04-03T08:39:44;7.00;;;3.33;;
22715;SDS011;11525;51.152;4.456;2023-04-03T08:42:25;9.00;;;4.00;;
22715;SDS011;11525;51.152;4.456;2023-04-03T08:45:16;5.13;;;2.75;;
22715;SDS011;11525;51.152;4.456;2023-04-03T08:48:00;7.75;;;3.20;;
22715;SDS011;11525;51.152;4.456;2023-04-03T08:50:43;6.30;;;2.83;;
22715;SDS011;11525;51.152;4.456;2023-04-03T08:53:14;4.43;;;2.80;;
22715;SDS011;11525;51.152;4.456;2023-04-03T08:55:43;5.05;;;2.92;;
22715;SDS011;11525;51.152;4.456;2023-04-03T09:03:14;6.47;;;2.60;;
22715;SDS011;11525;51.152;4.456;2023-04-03T09:05:55;5.65;;;2.80;;
22715;SDS011;11525;51.152;4.456;2023-04-03T09:17:25;4.63;;;2.30;;
22715;SDS011;11525;51.152;4.456;2023-04-03T09:20:14;2.80;;;2.38;;
22715;SDS011;11525;51.152;4.456;2023-04-03T09:22:42;4.57;;;2.58;;
22715;SDS011;11525;51.152;4.456;2023-04-03T09:27:48;6.15;;;3.55;;
22715;SDS011;11525;51.152;4.456;2023-04-03T09:30:16;5.65;;;3.00;;
22715;SDS011;11525;51.152;4.456;2023-04-03T09:32:45;7.57;;;2.55;;
22715;SDS011;11525;51.152;4.456;2023-04-03T09:35:21;6.13;;;2.60;;
22715;SDS011;11525;51.152;4.456;2023-04-03T09:40:36;5.40;;;3.92;;
22715;SDS011;11525;51.152;4.456;2023-04-03T09:45:42;5.05;;;3.00;;
22715;SDS011;11525;51.152;4.456;2023-04-03T09:51:00;7.63;;;4.22;;
22715;SDS011;11525;51.152;4.456;2023-04-03T09:53:35;9.32;;;6.03;;
22715;SDS011;11525;51.152;4.456;2023-04-03T09:58:40;7.15;;;2.38;;
22715;SDS011;11525;51.152;4.456;2023-04-03T10:01:31;4.32;;;2.63;;
22715;SDS011;11525;51.152;4.456;2023-04-03T10:04:18;6.95;;;2.47;;
22715;SDS011;11525;51.152;4.456;2023-04-03T10:06:46;5.60;;;2.63;;
22715;SDS011;11525;51.152;4.456;2023-04-03T10:09:26;3.72;;;2.10;;
22715;SDS011;11525;51.152;4.456;2023-04-03T10:14:53;5.45;;;2.40;;
22715;SDS011;11525;51.152;4.456;2023-04-03T10:17:32;3.80;;;2.40;;
22715;SDS011;11525;51.152;4.456;2023-04-03T10:20:33;7.28;;;2.30;;
22715;SDS011;11525;51.152;4.456;2023-04-03T10:23:17;2.58;;;1.73;;
22715;SDS011;11525;51.152;4.456;2023-04-03T10:43:12;4.15;;;2.10;;
22715;SDS011;11525;51.152;4.456;2023-04-03T10:45:49;3.67;;;2.20;;
22715;SDS011;11525;51.152;4.456;2023-04-03T11:02:05;3.63;;;2.42;;
22715;SDS011;11525;51.152;4.456;2023-04-03T11:04:37;2.85;;;1.90;;
22715;SDS011;11525;51.152;4.456;2023-04-03T11:09:46;2.72;;;1.73;;
22715;SDS011;11525;51.152;4.456;2023-04-03T11:12:17;3.70;;;2.20;;
22715;SDS011;11525;51.152;4.456;2023-04-03T11:14:58;4.38;;;2.10;;
22715;SDS011;11525;51.152;4.456;2023-04-03T11:17:28;2.65;;;1.73;;
22715;SDS011;11525;51.152;4.456;2023-04-03T11:20:03;2.70;;;1.90;;
22715;SDS011;11525;51.152;4.456;2023-04-03T11:22:35;2.47;;;1.83;;
22715;SDS011;11525;51.152;4.456;2023-04-03T11:27:42;2.92;;;2.00;;
22715;SDS011;11525;51.152;4.456;2023-04-03T11:30:22;2.63;;;1.70;;
22715;SDS011;11525;51.152;4.456;2023-04-03T11:33:11;4.75;;;2.17;;
22715;SDS011;11525;51.152;4.456;2023-04-03T11:35:53;3.28;;;2.05;;
22715;SDS011;11525;51.152;4.456;2023-04-03T11:38:28;2.33;;;1.75;;
22715;SDS011;11525;51.152;4.456;2023-04-03T11:41:01;2.35;;;1.70;;
22715;SDS011;11525;51.152;4.456;2023-04-03T11:43:30;3.58;;;1.90;;
22715;SDS011;11525;51.152;4.456;2023-04-03T11:46:02;1.60;;;1.50;;
22715;SDS011;11525;51.152;4.456;2023-04-03T11:51:01;5.25;;;2.13;;
22715;SDS011;11525;51.152;4.456;2023-04-03T11:53:37;3.55;;;1.92;;
22715;SDS011;11525;51.152;4.456;2023-04-03T12:04:20;1.60;;;1.45;;
22715;SDS011;11525;51.152;4.456;2023-04-03T12:11:58;1.70;;;1.60;;
22715;SDS011;11525;51.152;4.456;2023-04-03T12:14:26;2.17;;;1.75;;
22715;SDS011;11525;51.152;4.456;2023-04-03T12:16:54;1.60;;;1.50;;
22715;SDS011;11525;51.152;4.456;2023-04-03T12:22:15;3.15;;;2.05;;
22715;SDS011;11525;51.152;4.456;2023-04-03T12:24:45;2.38;;;1.70;;
22715;SDS011;11525;51.152;4.456;2023-04-03T12:27:18;2.90;;;1.65;;
22715;SDS011;11525;51.152;4.456;2023-04-03T12:29:47;2.10;;;1.70;;
22715;SDS011;11525;51.152;4.456;2023-04-03T12:43:17;2.75;;;2.20;;
22715;SDS011;11525;51.152;4.456;2023-04-03T12:48:39;3.35;;;1.95;;
22715;SDS011;11525;51.152;4.456;2023-04-03T12:51:15;1.90;;;1.70;;
22715;SDS011;11525;51.152;4.456;2023-04-03T12:54:00;2.53;;;2.00;;
22715;SDS011;11525;51.152;4.456;2023-04-03T12:56:30;3.10;;;2.22;;
22715;SDS011;11525;51.152;4.456;2023-04-03T13:01:58;4.47;;;2.15;;
22715;SDS011;11525;51.152;4.456;2023-04-03T13:04:26;2.08;;;1.92;;
22715;SDS011;11525;51.152;4.456;2023-04-03T13:06:53;3.17;;;1.90;;
22715;SDS011;11525;51.152;4.456;2023-04-03T13:09:26;4.55;;;2.42;;
22715;SDS011;11525;51.152;4.456;2023-04-03T13:11:58;5.45;;;2.33;;
22715;SDS011;11525;51.152;4.456;2023-04-03T13:14:35;3.15;;;2.00;;
22715;SDS011;11525;51.152;4.456;2023-04-03T13:17:14;2.95;;;2.10;;
22715;SDS011;11525;51.152;4.456;2023-04-03T13:19:41;5.07;;;1.95;;
22715;SDS011;11525;51.152;4.456;2023-04-03T13:22:19;4.32;;;2.08;;
22715;SDS011;11525;51.152;4.456;2023-04-03T13:24:52;2.53;;;2.00;;
22715;SDS011;11525;51.152;4.456;2023-04-03T13:27:20;6.03;;;2.00;;
22715;SDS011;11525;51.152;4.456;2023-04-03T13:29:50;2.63;;;2.20;;
22715;SDS011;11525;51.152;4.456;2023-04-03T13:32:19;3.28;;;2.28;;
22715;SDS011;11525;51.152;4.456;2023-04-03T13:34:47;1.98;;;1.58;;
22715;SDS011;11525;51.152;4.456;2023-04-03T13:37:21;2.70;;;2.03;;
22715;SDS011;11525;51.152;4.456;2023-04-03T13:40:00;4.03;;;2.17;;
22715;SDS011;11525;51.152;4.456;2023-04-03T13:42:32;2.70;;;2.03;;
22715;SDS011;11525;51.152;4.456;2023-04-03T13:47:43;2.92;;;1.85;;
22715;SDS011;11525;51.152;4.456;2023-04-03T13:53:11;3.35;;;1.77;;
22715;SDS011;11525;51.152;4.456;2023-04-03T13:55:58;8.45;;;1.88;;
22715;SDS011;11525;51.152;4.456;2023-04-03T13:58:31;4.18;;;1.85;;
22715;SDS011;11525;51.152;4.456;2023-04-03T14:06:11;3.90;;;1.80;;
22715;SDS011;11525;51.152;4.456;2023-04-03T14:08:39;2.70;;;2.05;;
22715;SDS011;11525;51.152;4.456;2023-04-03T14:11:08;1.98;;;1.67;;
22715;SDS011;11525;51.152;4.456;2023-04-03T14:13:46;2.15;;;2.03;;
22715;SDS011;11525;51.152;4.456;2023-04-03T14:16:14;2.75;;;1.80;;
22715;SDS011;11525;51.152;4.456;2023-04-03T14:18:41;4.85;;;1.80;;
22715;SDS011;11525;51.152;4.456;2023-04-03T14:21:10;2.55;;;1.77;;
22715;SDS011;11525;51.152;4.456;2023-04-03T14:23:37;3.55;;;2.03;;
22715;SDS011;11525;51.152;4.456;2023-04-03T14:26:04;3.63;;;2.10;;
22715;SDS011;11525;51.152;4.456;2023-04-03T14:28:35;2.97;;;1.85;;
22715;SDS011;11525;51.152;4.456;2023-04-03T14:31:01;4.57;;;2.05;;
22715;SDS011;11525;51.152;4.456;2023-04-03T14:33:27;7.05;;;1.95;;
22715;SDS011;11525;51.152;4.456;2023-04-03T14:35:56;3.20;;;2.03;;
22715;SDS011;11525;51.152;4.456;2023-04-03T14:40:52;2.63;;;1.95;;
22715;SDS011;11525;51.152;4.456;2023-04-03T14:43:20;1.88;;;1.77;;
22715;SDS011;11525;51.152;4.456;2023-04-03T14:45:49;5.57;;;2.30;;
22715;SDS011;11525;51.152;4.456;2023-04-03T14:48:20;2.30;;;2.10;;
22715;SDS011;11525;51.152;4.456;2023-04-03T14:50:48;3.55;;;1.95;;
22715;SDS011;11525;51.152;4.456;2023-04-03T14:53:15;2.75;;;1.80;;
22715;SDS011;11525;51.152;4.456;2023-04-03T14:55:43;4.20;;;1.92;;
22715;SDS011;11525;51.152;4.456;2023-04-03T14:58:14;3.40;;;2.22;;
22715;SDS011;11525;51.152;4.456;2023-04-03T15:00:42;7.68;;;2.20;;
22715;SDS011;11525;51.152;4.456;2023-04-03T15:03:12;2.08;;;1.70;;
22715;SDS011;11525;51.152;4.456;2023-04-03T15:05:39;2.75;;;1.90;;
22715;SDS011;11525;51.152;4.456;2023-04-03T15:08:08;5.35;;;1.73;;
22715;SDS011;11525;51.152;4.456;2023-04-03T15:10:44;6.03;;;2.08;;
22715;SDS011;11525;51.152;4.456;2023-04-03T15:13:10;2.45;;;1.70;;
22715;SDS011;11525;51.152;4.456;2023-04-03T15:15:37;3.45;;;1.98;;
22715;SDS011;11525;51.152;4.456;2023-04-03T15:18:02;3.15;;;2.15;;
22715;SDS011;11525;51.152;4.456;2023-04-03T15:20:29;4.20;;;2.17;;
22715;SDS011;11525;51.152;4.456;2023-04-03T15:22:58;1.92;;;1.73;;
22715;SDS011;11525;51.152;4.456;2023-04-03T15:25:27;2.65;;;1.60;;
22715;SDS011;11525;51.152;4.456;2023-04-03T15:27:54;3.30;;;2.13;;
22715;SDS011;11525;51.152;4.456;2023-04-03T15:30:21;1.67;;;1.55;;
22715;SDS011;11525;51.152;4.456;2023-04-03T15:32:47;6.10;;;2.15;;
22715;SDS011;11525;51.152;4.456;2023-04-03T15:35:14;2.85;;;1.95;;
22715;SDS011;11525;51.152;4.456;2023-04-03T15:37:40;3.17;;;2.00;;
22715;SDS011;11525;51.152;4.456;2023-04-03T15:40:06;2.35;;;2.15;;
22715;SDS011;11525;51.152;4.456;2023-04-03T15:42:33;3.40;;;2.30;;
22715;SDS011;11525;51.152;4.456;2023-04-03T15:44:59;3.22;;;1.85;;
22715;SDS011;11525;51.152;4.456;2023-04-03T15:47:25;3.42;;;2.28;;
22715;SDS011;11525;51.152;4.456;2023-04-03T15:49:52;3.05;;;1.90;;
22715;SDS011;11525;51.152;4.456;2023-04-03T15:52:19;4.18;;;2.95;;
22715;SDS011;11525;51.152;4.456;2023-04-03T15:54:45;2.65;;;2.35;;
22715;SDS011;11525;51.152;4.456;2023-04-03T15:57:11;5.03;;;2.30;;
22715;SDS011;11525;51.152;4.456;2023-04-03T15:59:37;4.43;;;2.58;;
22715;SDS011;11525;51.152;4.456;2023-04-03T16:02:03;3.67;;;2.13;;
22715;SDS011;11525;51.152;4.456;2023-04-03T16:04:32;2.97;;;2.13;;
22715;SDS011;11525;51.152;4.456;2023-04-03T16:07:00;3.22;;;2.08;;
22715;SDS011;11525;51.152;4.456;2023-04-03T16:09:27;3.97;;;2.33;;
22715;SDS011;11525;51.152;4.456;2023-04-03T16:11:53;3.25;;;2.25;;
22715;SDS011;11525;51.152;4.456;2023-04-03T16:14:19;4.50;;;2.25;;
22715;SDS011;11525;51.152;4.456;2023-04-03T16:16:45;5.20;;;2.38;;
22715;SDS011;11525;51.152;4.456;2023-04-03T16:19:11;7.97;;;2.30;;
22715;SDS011;11525;51.152;4.456;2023-04-03T16:21:38;3.88;;;2.15;;
22715;SDS011;11525;51.152;4.456;2023-04-03T16:24:03;4.60;;;2.45;;
22715;SDS011;11525;51.152;4.456;2023-04-03T16:26:30;3.58;;;2.28;;
22715;SDS011;11525;51.152;4.456;2023-04-03T16:28:56;2.85;;;1.90;;
22715;SDS011;11525;51.152;4.456;2023-04-03T16:31:22;4.00;;;2.75;;
22715;SDS011;11525;51.152;4.456;2023-04-03T16:33:50;2.75;;;2.08;;
22715;SDS011;11525;51.152;4.456;2023-04-03T16:36:15;6.13;;;2.50;;
22715;SDS011;11525;51.152;4.456;2023-04-03T16:38:41;3.70;;;2.97;;
22715;SDS011;11525;51.152;4.456;2023-04-03T16:41:07;3.15;;;2.13;;
22715;SDS011;11525;51.152;4.456;2023-04-03T16:43:33;5.35;;;2.17;;
22715;SDS011;11525;51.152;4.456;2023-04-03T16:46:00;6.13;;;2.65;;
22715;SDS011;11525;51.152;4.456;2023-04-03T16:48:27;3.08;;;2.40;;